KFLG

Flagstaff Pulliam Airport

Flagstaff, Arizona, USA
KFLG 161730Z 1618/1718 VRB05KT P6SM FEW080 OVC100 FM161900 06008KT P6SM VCTS SCT050CB BKN180 TEMPO 1620/1624 VRB10G20KT 5SM TSRA BKN050CB FM170200 VRB05KT P6SM SCT060 BKN120
Issued Valid From Valid To
Jul-16 @ 17:30 UTC
(3 hours ago)
Jul-16 @ 18:00 UTC
(2 hours ago)
Jul-17 @ 18:00 UTC
(in 22 hours)
Expired Click to View Jul-16 @ 18:00 to Jul-16 @ 19:00
KFLG 161730Z 1618/1718 VRB05KT P6SM FEW080 OVC100
Wind Visibility Clouds
Variable at 5 knots Greater than 6 miles
  • Few at 8,000' AGL
  • Overcast at 10,000' AGL
From Jul-16 @ 19:00 to Jul-17 @ 02:00
FM161900 06008KT P6SM VCTS SCT050CB BKN180
Wind Visibility Clouds Conditions
60° at 8 knots Greater than 6 miles
  • Scattered at 5,000' AGL
  • Broken at 18,000' AGL
  • Area Thunderstorm
Temporary Jul-16 @ 20:00 to Jul-17 @ 00:00
TEMPO 1620/1624 VRB10G20KT 5SM TSRA BKN050CB
Wind Visibility Clouds Conditions
Variable at 10 knots
 Gusting to 20 knots
5 miles
  • Broken at 5,000' AGL
  • Thunderstorm
  • Rain
From Jul-17 @ 02:00 to Jul-17 @ 18:00
FM170200 VRB05KT P6SM SCT060 BKN120
Wind Visibility Clouds
Variable at 5 knots Greater than 6 miles
  • Scattered at 6,000' AGL
  • Broken at 12,000' AGL
KFLG 161730Z 1618/1718 VRB05KT P6SM FEW080 OVC100 FM161900 06008KT P6SM VCTS SCT050CB BKN180 TEMPO 1620/1624 VRB10G20KT 5SM TSRA BKN050CB FM170200 VRB05KT P6SM SCT060 BKN120
Issued Jul-16 @ 17:30 UTC
(3 hours ago)
Valid From Jul-16 @ 18:00 UTC
(2 hours ago)
Valid To Jul-17 @ 18:00 UTC
(in 22 hours)
Jul-16 @ 18:00 - Jul-16 @ 19:00
Wind Visibility
Variable at 5 knots Greater than 6 miles
Clouds
  • Few at 8,000' AGL
  • Overcast at 10,000' AGL
From Jul-16 @ 19:00 - Jul-17 @ 02:00
Wind Visibility
60° at 8 knots Greater than 6 miles
Clouds
  • Scattered at 5,000' AGL
  • Broken at 18,000' AGL
Conditions
  • Area Thunderstorm
Temporary Jul-16 @ 20:00 - Jul-17 @ 00:00
Wind Visibility
Variable at 10 knots
 Gusting to 20 knots
5 miles
Clouds
  • Broken at 5,000' AGL
Conditions
  • Thunderstorm
  • Rain
From Jul-17 @ 02:00 - Jul-17 @ 18:00
Wind Visibility
Variable at 5 knots Greater than 6 miles
Clouds
  • Scattered at 6,000' AGL
  • Broken at 12,000' AGL